Time;durP1;ratioP1;P1;durP2;ratioP2;P2;SDS_P1;SDS_P2;PMS_P1;PMS_P2;Temp;Humidity;BMP_temperature;BMP_pressure;BME280_temperature;BME280_humidity;BME280_pressure;Samples;Min_cycle;Max_cycle;Signal;HPM_P1;HPM_P2
2021/05/31 00:02:10;;;;;;;8.43;5.65;;;14.70;99.90;;;;;;4995853;28;20042;-86
2021/05/31 00:04:36;;;;;;;9.07;5.13;;;14.70;99.90;;;;;;4998769;28;20613;-86
2021/05/31 00:07:09;;;;;;;7.32;4.95;;;14.60;99.90;;;;;;4980961;28;20037;-86
2021/05/31 00:09:37;;;;;;;7.97;5.00;;;14.60;99.90;;;;;;5003493;28;20041;-85
2021/05/31 00:12:05;;;;;;;8.50;5.50;;;14.50;99.90;;;;;;4986066;28;20029;-86
2021/05/31 00:14:31;;;;;;;8.52;5.43;;;14.50;99.90;;;;;;4992517;28;20451;-86
2021/05/31 00:16:56;;;;;;;6.35;4.78;;;14.40;99.90;;;;;;4993411;28;20048;-86
2021/05/31 00:19:22;;;;;;;11.35;6.00;;;14.40;99.90;;;;;;4991921;28;20033;-87
2021/05/31 00:21:49;;;;;;;8.93;5.25;;;14.40;99.90;;;;;;4986607;28;20061;-86
2021/05/31 00:24:15;;;;;;;7.38;5.13;;;14.30;99.90;;;;;;4985060;28;20057;-87
2021/05/31 00:26:41;;;;;;;8.20;5.80;;;14.30;99.90;;;;;;4997336;28;20030;-85
2021/05/31 00:29:07;;;;;;;6.70;5.22;;;14.30;99.90;;;;;;4978794;28;20480;-86
2021/05/31 00:31:33;;;;;;;7.82;5.50;;;14.30;99.90;;;;;;4977436;28;20069;-86
2021/05/31 00:33:59;;;;;;;8.43;5.68;;;14.20;99.90;;;;;;5003997;28;20086;-85
2021/05/31 00:36:26;;;;;;;9.70;5.70;;;14.20;99.90;;;;;;4996084;28;20031;-87
2021/05/31 00:38:51;;;;;;;10.55;7.00;;;14.20;99.90;;;;;;4996020;28;20030;-86
2021/05/31 00:41:17;;;;;;;9.85;6.65;;;14.20;99.90;;;;;;4986773;28;20084;-85
2021/05/31 00:43:43;;;;;;;7.78;5.88;;;14.10;99.90;;;;;;4988318;28;20038;-86
2021/05/31 00:46:09;;;;;;;11.57;6.60;;;14.10;99.90;;;;;;4979817;28;20045;-85
2021/05/31 00:48:37;;;;;;;10.20;6.75;;;14.10;99.90;;;;;;4991984;28;20499;-86
2021/05/31 00:51:05;;;;;;;8.23;5.75;;;14.10;99.90;;;;;;5001079;28;20030;-87
2021/05/31 00:53:31;;;;;;;9.07;6.00;;;14.00;99.90;;;;;;5002587;28;20042;-87
2021/05/31 00:55:57;;;;;;;9.00;6.10;;;14.00;99.90;;;;;;4973184;28;20033;-87
2021/05/31 00:58:28;;;;;;;10.57;6.15;;;14.00;99.90;;;;;;4998440;28;20042;-87
2021/05/31 01:00:55;;;;;;;8.60;5.57;;;14.00;99.90;;;;;;5004419;28;20026;-87
2021/05/31 01:03:22;;;;;;;8.38;5.78;;;14.00;99.90;;;;;;4978995;28;20057;-87
2021/05/31 01:05:48;;;;;;;8.73;6.10;;;13.90;99.90;;;;;;5003025;28;20030;-87
2021/05/31 01:08:23;;;;;;;8.48;5.63;;;13.90;99.90;;;;;;4978663;28;20042;-86
2021/05/31 01:11:12;;;;;;;8.38;5.68;;;13.90;99.90;;;;;;4993568;28;20113;-86
2021/05/31 01:13:43;;;;;;;8.40;6.45;;;13.90;99.90;;;;;;4973258;28;20030;-86
2021/05/31 01:16:21;;;;;;;8.45;5.70;;;13.80;99.90;;;;;;4981408;28;20045;-85
2021/05/31 01:18:48;;;;;;;9.48;6.53;;;13.80;99.90;;;;;;4975820;28;20116;-86
2021/05/31 01:21:44;;;;;;;10.27;6.40;;;13.80;99.90;;;;;;5001899;28;20030;-89
2021/05/31 01:24:28;;;;;;;9.18;6.97;;;13.80;99.90;;;;;;4993412;28;20108;-87
2021/05/31 01:27:00;;;;;;;;;;;13.70;99.90;;;;;;4962968;28;20034;-88
2021/05/31 01:29:26;;;;;;;9.02;6.05;;;13.60;99.90;;;;;;4975483;28;19909;-87
2021/05/31 01:32:03;;;;;;;7.22;5.40;;;13.60;99.90;;;;;;4975548;28;20038;-87
2021/05/31 01:34:33;;;;;;;8.48;6.25;;;13.60;99.90;;;;;;4993739;28;20479;-86
2021/05/31 01:37:08;;;;;;;10.13;6.70;;;13.60;99.90;;;;;;4995132;28;20032;-86
2021/05/31 01:39:38;;;;;;;9.35;6.72;;;13.60;99.90;;;;;;5001776;28;20125;-85
2021/05/31 01:42:05;;;;;;;9.73;6.40;;;13.60;99.90;;;;;;5008233;28;20041;-87
2021/05/31 01:44:32;;;;;;;10.07;6.80;;;13.50;99.90;;;;;;4996686;28;20484;-87
2021/05/31 01:46:58;;;;;;;10.52;6.60;;;13.50;99.90;;;;;;5006501;28;20100;-88
2021/05/31 01:49:24;;;;;;;9.27;6.35;;;13.50;99.90;;;;;;4976026;28;20038;-87
2021/05/31 01:51:51;;;;;;;8.30;6.25;;;13.50;99.90;;;;;;4988872;28;20041;-88
2021/05/31 01:54:18;;;;;;;9.68;6.35;;;13.50;99.90;;;;;;4978902;28;20041;-88
2021/05/31 01:56:47;;;;;;;10.38;6.25;;;13.50;99.90;;;;;;4996617;28;20026;-87
2021/05/31 01:59:13;;;;;;;8.90;5.75;;;13.50;99.90;;;;;;4990436;28;20125;-88
2021/05/31 02:01:39;;;;;;;10.93;6.38;;;13.40;99.90;;;;;;4990739;28;20034;-87
2021/05/31 02:04:05;;;;;;;10.68;6.70;;;13.40;99.90;;;;;;5016540;28;20038;-88
2021/05/31 02:06:30;;;;;;;10.27;6.85;;;13.30;99.90;;;;;;4999100;28;20372;-88
2021/05/31 02:08:56;;;;;;;8.93;6.65;;;13.30;99.90;;;;;;5010179;28;20106;-87
2021/05/31 02:11:33;;;;;;;9.68;6.35;;;13.30;99.90;;;;;;4988192;28;20057;-87
2021/05/31 02:14:04;;;;;;;8.68;6.28;;;13.30;99.90;;;;;;5001676;28;20042;-87
2021/05/31 02:16:38;;;;;;;8.38;6.40;;;13.20;99.90;;;;;;4994547;28;20044;-86
2021/05/31 02:19:04;;;;;;;;;;;13.20;99.90;;;;;;4985889;28;20050;-87
2021/05/31 02:21:33;;;;;;;11.00;7.63;;;13.10;99.90;;;;;;5005263;28;19953;-87
2021/05/31 02:23:59;;;;;;;12.48;7.65;;;13.20;99.90;;;;;;4978516;28;20065;-87
2021/05/31 02:26:25;;;;;;;12.45;8.18;;;13.10;99.90;;;;;;4996098;28;20113;-87
2021/05/31 02:28:51;;;;;;;11.98;8.30;;;13.10;99.90;;;;;;4995957;28;20423;-87
2021/05/31 02:31:18;;;;;;;11.27;8.25;;;13.10;99.90;;;;;;4996107;28;20109;-88
2021/05/31 02:33:48;;;;;;;12.35;7.72;;;13.10;99.90;;;;;;4996120;28;20038;-86
2021/05/31 02:36:16;;;;;;;10.30;7.10;;;13.00;99.90;;;;;;4978265;28;20124;-86
2021/05/31 02:38:42;;;;;;;11.30;7.75;;;13.00;99.90;;;;;;4995857;28;20158;-87
2021/05/31 02:41:08;;;;;;;11.30;7.88;;;13.00;99.90;;;;;;4975688;28;20062;-87
2021/05/31 02:43:34;;;;;;;11.55;8.18;;;13.00;99.90;;;;;;4978497;28;20042;-87
2021/05/31 02:46:00;;;;;;;11.60;8.27;;;12.90;99.90;;;;;;4995892;28;20066;-87
2021/05/31 02:48:27;;;;;;;14.18;9.43;;;12.90;99.90;;;;;;4978481;28;20097;-88
2021/05/31 02:50:56;;;;;;;13.77;9.88;;;12.90;99.90;;;;;;4995931;28;20027;-88
2021/05/31 02:53:25;;;;;;;19.02;12.38;;;12.90;99.90;;;;;;4977760;28;20101;-87
2021/05/31 02:55:51;;;;;;;14.85;10.57;;;12.80;99.90;;;;;;4978076;28;20038;-87
2021/05/31 02:58:17;;;;;;;15.48;11.27;;;12.80;99.90;;;;;;4995599;28;20539;-88
2021/05/31 03:00:43;;;;;;;17.90;12.60;;;12.80;99.90;;;;;;4995609;28;20030;-87
2021/05/31 03:03:09;;;;;;;17.50;11.45;;;12.80;99.90;;;;;;4994053;28;20061;-87
2021/05/31 03:05:36;;;;;;;16.00;10.52;;;12.80;99.90;;;;;;4978223;28;20022;-87
2021/05/31 03:08:02;;;;;;;16.15;10.48;;;12.70;99.90;;;;;;4977117;28;20092;-86
2021/05/31 03:10:28;;;;;;;15.05;9.98;;;12.70;99.90;;;;;;4976604;28;20033;-88
2021/05/31 03:12:54;;;;;;;15.82;10.38;;;12.70;99.90;;;;;;4995513;28;20037;-88
2021/05/31 03:15:21;;;;;;;14.15;9.48;;;12.70;99.90;;;;;;4977616;28;20099;-87
2021/05/31 03:17:49;;;;;;;14.32;9.27;;;12.60;99.90;;;;;;4978156;28;20125;-88
2021/05/31 03:20:17;;;;;;;12.23;9.07;;;12.60;99.90;;;;;;4995329;28;20606;-88
2021/05/31 03:22:43;;;;;;;12.40;9.05;;;12.60;99.90;;;;;;4994958;28;20181;-87
2021/05/31 03:25:10;;;;;;;11.82;8.23;;;12.60;99.90;;;;;;5001906;28;20456;-86
2021/05/31 03:27:36;;;;;;;10.25;7.85;;;12.50;99.90;;;;;;4988317;28;20360;-87
2021/05/31 03:30:04;;;;;;;11.82;8.25;;;12.60;99.90;;;;;;4982278;28;20488;-87
2021/05/31 03:32:30;;;;;;;11.90;7.88;;;12.60;99.90;;;;;;4993240;28;20714;-87
2021/05/31 03:34:55;;;;;;;10.00;7.53;;;12.50;99.90;;;;;;4983043;28;20034;-87
2021/05/31 03:37:21;;;;;;;9.43;6.90;;;12.50;99.90;;;;;;4987564;28;20030;-87
2021/05/31 03:39:46;;;;;;;12.55;8.20;;;12.50;99.90;;;;;;5007364;28;20116;-87
2021/05/31 03:42:12;;;;;;;12.32;8.50;;;12.50;99.90;;;;;;4997623;28;20101;-86
2021/05/31 03:44:37;;;;;;;9.98;7.53;;;12.40;99.90;;;;;;4996148;28;20130;-87
2021/05/31 03:47:03;;;;;;;10.00;7.47;;;12.40;99.90;;;;;;4989440;28;20035;-89
2021/05/31 03:49:29;;;;;;;12.43;8.75;;;12.40;99.90;;;;;;4987674;28;20521;-89
2021/05/31 03:51:55;;;;;;;10.07;7.88;;;12.40;99.90;;;;;;4983281;28;20057;-89
2021/05/31 03:54:20;;;;;;;10.40;7.57;;;12.40;99.90;;;;;;4993461;28;20033;-89
2021/05/31 03:56:46;;;;;;;9.68;7.47;;;12.40;99.90;;;;;;4981789;28;20037;-89
2021/05/31 03:59:11;;;;;;;11.15;8.15;;;12.40;99.90;;;;;;5006243;28;20034;-88
2021/05/31 04:01:37;;;;;;;9.63;7.45;;;12.40;99.90;;;;;;4989106;28;20064;-88
2021/05/31 04:04:03;;;;;;;10.80;8.05;;;12.40;99.90;;;;;;4998167;28;20042;-89
2021/05/31 04:11:41;;;;;;;13.68;8.80;;;12.40;99.90;;;;;;4995056;28;20104;-87
2021/05/31 04:14:14;;;;;;;12.30;8.68;;;12.40;99.90;;;;;;4974459;28;20121;-88
2021/05/31 04:16:41;;;;;;;;;;;12.40;99.90;;;;;;5003041;28;20037;-88
2021/05/31 04:19:08;;;;;;;12.88;8.95;;;12.30;99.90;;;;;;4996072;28;20321;-87
2021/05/31 04:21:35;;;;;;;11.85;8.50;;;12.40;99.90;;;;;;4996437;28;20034;-87
2021/05/31 04:24:01;;;;;;;14.57;9.95;;;12.40;99.90;;;;;;4981131;28;20069;-88
2021/05/31 04:26:27;;;;;;;14.32;9.60;;;12.40;99.90;;;;;;4994534;28;20113;-88
2021/05/31 04:28:53;;;;;;;11.50;8.40;;;12.40;99.90;;;;;;4996658;28;20076;-88
2021/05/31 04:31:19;;;;;;;12.88;8.95;;;12.40;99.90;;;;;;4986694;28;20643;-88
2021/05/31 04:33:45;;;;;;;15.82;11.05;;;12.50;99.90;;;;;;4990706;28;20050;-87
2021/05/31 04:36:11;;;;;;;12.50;9.73;;;12.50;99.90;;;;;;4975726;28;20550;-87
2021/05/31 04:38:37;;;;;;;12.55;9.43;;;12.50;99.90;;;;;;4996806;28;20121;-85
2021/05/31 04:41:04;;;;;;;12.82;8.90;;;12.60;99.90;;;;;;4976963;28;20278;-88
2021/05/31 04:43:30;;;;;;;12.75;9.70;;;12.60;99.90;;;;;;5000223;28;20503;-87
2021/05/31 04:45:56;;;;;;;15.02;9.93;;;12.70;99.90;;;;;;4975779;28;20037;-88
2021/05/31 04:48:22;;;;;;;12.85;10.10;;;12.70;99.90;;;;;;4977235;28;20038;-85
2021/05/31 04:50:48;;;;;;;12.85;9.07;;;12.80;99.90;;;;;;5009991;28;20108;-87
2021/05/31 04:53:15;;;;;;;13.07;9.45;;;12.80;99.90;;;;;;5009857;28;20038;-87
2021/05/31 04:55:41;;;;;;;12.10;9.65;;;12.80;99.90;;;;;;5003377;28;20099;-86
2021/05/31 04:58:07;;;;;;;12.18;7.88;;;12.90;99.90;;;;;;5009967;28;20034;-86
2021/05/31 05:00:32;;;;;;;13.80;9.40;;;13.00;99.90;;;;;;4993660;28;20042;-86
2021/05/31 05:02:58;;;;;;;13.00;9.45;;;13.00;99.90;;;;;;4996633;28;20034;-87
2021/05/31 05:05:25;;;;;;;17.92;11.55;;;13.10;99.90;;;;;;4992140;28;20045;-86
2021/05/31 05:07:51;;;;;;;14.52;11.27;;;13.10;99.90;;;;;;4997590;28;20037;-88
2021/05/31 05:10:19;;;;;;;15.63;10.63;;;13.10;99.90;;;;;;4975595;28;20038;-86
2021/05/31 05:12:46;;;;;;;13.25;10.00;;;13.20;99.90;;;;;;4996648;28;20053;-88
2021/05/31 05:15:13;;;;;;;15.52;10.50;;;13.20;99.90;;;;;;4991542;28;20506;-88
2021/05/31 05:17:39;;;;;;;14.63;11.00;;;13.30;99.90;;;;;;5000781;28;20045;-86
2021/05/31 05:20:05;;;;;;;15.73;11.43;;;13.30;99.90;;;;;;4973700;28;20132;-85
2021/05/31 05:22:31;;;;;;;14.93;10.70;;;13.30;99.90;;;;;;4973167;28;20042;-86
2021/05/31 05:24:57;;;;;;;14.82;10.32;;;13.40;99.90;;;;;;4979130;28;20057;-85
2021/05/31 05:27:23;;;;;;;16.33;10.80;;;13.40;99.90;;;;;;4984871;28;20048;-86
2021/05/31 05:29:49;;;;;;;16.00;10.77;;;13.50;99.90;;;;;;4990818;28;20045;-87
2021/05/31 05:32:14;;;;;;;13.18;9.55;;;13.60;99.90;;;;;;4992375;28;20030;-85
2021/05/31 05:34:40;;;;;;;14.07;9.75;;;13.60;99.90;;;;;;4997924;28;20026;-87
2021/05/31 05:37:09;;;;;;;14.57;10.90;;;13.70;99.90;;;;;;4993839;28;20125;-89
2021/05/31 05:40:02;;;;;;;15.70;11.20;;;13.70;99.90;;;;;;5011182;28;20054;-89
2021/05/31 05:47:41;;;;;;;14.27;9.93;;;13.90;99.90;;;;;;5006624;28;20492;-87
2021/05/31 05:50:08;;;;;;;14.10;9.38;;;14.10;99.90;;;;;;4996337;28;20041;-88
2021/05/31 05:52:33;;;;;;;10.85;7.72;;;14.10;99.90;;;;;;5012898;28;20495;-88
2021/05/31 05:54:59;;;;;;;11.20;7.97;;;14.30;99.90;;;;;;4994491;28;20058;-89
2021/05/31 05:57:25;;;;;;;11.00;8.52;;;14.40;99.90;;;;;;5013967;28;20179;-88
2021/05/31 05:59:50;;;;;;;12.77;8.45;;;14.40;99.90;;;;;;4987265;28;20031;-88
2021/05/31 06:02:16;;;;;;;13.75;9.20;;;14.50;99.90;;;;;;4995805;28;20483;-87
2021/05/31 06:04:41;;;;;;;13.85;9.70;;;14.60;99.90;;;;;;4982349;28;20443;-86
2021/05/31 06:07:07;;;;;;;11.60;8.95;;;14.60;99.90;;;;;;4992962;28;20113;-86
2021/05/31 06:09:33;;;;;;;15.10;10.05;;;14.60;99.90;;;;;;4984971;28;20038;-87
2021/05/31 06:11:58;;;;;;;18.77;12.75;;;14.60;99.90;;;;;;4999029;28;20035;-89
2021/05/31 06:14:24;;;;;;;13.13;10.48;;;14.70;99.90;;;;;;4979693;28;20131;-88
2021/05/31 06:16:50;;;;;;;15.05;11.23;;;14.70;99.90;;;;;;4980870;28;20022;-89
2021/05/31 06:19:15;;;;;;;13.90;10.52;;;14.80;99.90;;;;;;5004215;28;20029;-90
2021/05/31 06:21:41;;;;;;;17.08;11.93;;;14.80;99.90;;;;;;4989401;28;20030;-91
2021/05/31 06:24:07;;;;;;;15.75;11.50;;;14.80;99.90;;;;;;4987081;28;20065;-90
2021/05/31 06:26:32;;;;;;;17.33;11.27;;;14.90;99.90;;;;;;4981190;28;20057;-90
2021/05/31 06:28:58;;;;;;;16.40;11.10;;;14.90;99.90;;;;;;4981508;28;20041;-90
2021/05/31 06:31:23;;;;;;;14.18;10.52;;;15.00;99.90;;;;;;4980387;28;20055;-89
2021/05/31 06:33:49;;;;;;;14.10;9.80;;;15.00;99.90;;;;;;4980173;28;20396;-90
2021/05/31 06:36:14;;;;;;;13.80;9.45;;;15.10;99.90;;;;;;4980779;28;20031;-91
2021/05/31 06:38:40;;;;;;;13.98;10.15;;;15.20;99.90;;;;;;4980778;28;20387;-89
2021/05/31 06:41:06;;;;;;;12.95;8.80;;;15.20;99.90;;;;;;4980458;28;20110;-91
2021/05/31 06:43:33;;;;;;;13.73;9.45;;;15.30;99.90;;;;;;4979639;28;20137;-92
2021/05/31 06:45:59;;;;;;;16.30;12.35;;;15.40;99.90;;;;;;4979641;28;20069;-91
2021/05/31 06:48:25;;;;;;;15.48;10.07;;;15.50;99.90;;;;;;4982550;28;20065;-89
2021/05/31 06:50:53;;;;;;;17.85;10.57;;;15.50;99.90;;;;;;4983053;28;20035;-90
2021/05/31 06:53:19;;;;;;;13.65;10.63;;;15.60;99.90;;;;;;4987927;28;20038;-90
2021/05/31 06:55:45;;;;;;;14.60;10.07;;;15.60;99.90;;;;;;4982443;28;20022;-90
2021/05/31 06:58:12;;;;;;;12.32;9.45;;;15.70;99.90;;;;;;5000045;28;20042;-90
2021/05/31 07:00:38;;;;;;;14.88;10.35;;;15.70;99.90;;;;;;4981240;28;20027;-94
2021/05/31 07:03:03;;;;;;;15.15;9.90;;;15.80;99.90;;;;;;4987917;28;20041;-92
2021/05/31 07:05:29;;;;;;;12.45;10.07;;;15.80;99.90;;;;;;4990630;28;20049;-90
2021/05/31 07:07:55;;;;;;;15.85;10.27;;;15.90;99.90;;;;;;4980067;28;20043;-91
2021/05/31 07:10:27;;;;;;;15.40;10.63;;;15.90;99.90;;;;;;4979575;28;20022;-89
2021/05/31 07:12:54;;;;;;;13.90;9.30;;;16.00;99.90;;;;;;4976418;28;20030;-90
2021/05/31 07:15:20;;;;;;;15.57;10.23;;;16.00;99.90;;;;;;4995590;28;20061;-90
2021/05/31 07:17:46;;;;;;;17.63;10.55;;;16.00;99.90;;;;;;4980016;28;20488;-91
2021/05/31 07:20:13;;;;;;;14.50;10.27;;;16.10;99.90;;;;;;4978500;28;20130;-89
2021/05/31 07:22:42;;;;;;;18.58;11.13;;;16.10;99.90;;;;;;4963756;28;20667;-87
2021/05/31 07:25:09;;;;;;;14.73;11.07;;;16.20;99.90;;;;;;4961523;28;20067;-91
2021/05/31 07:27:35;;;;;;;13.80;10.55;;;16.20;99.90;;;;;;4941070;29;20031;-91
2021/05/31 07:30:01;;;;;;;13.48;9.88;;;16.40;99.90;;;;;;4941835;29;20170;-91
2021/05/31 07:32:27;;;;;;;11.85;8.80;;;16.40;99.90;;;;;;4953187;28;20039;-89
2021/05/31 07:34:52;;;;;;;11.27;8.50;;;16.50;99.90;;;;;;4996191;28;20394;-90
2021/05/31 07:37:18;;;;;;;12.93;10.52;;;16.60;99.90;;;;;;4980251;28;20499;-90
2021/05/31 07:39:44;;;;;;;13.93;9.30;;;16.70;99.90;;;;;;4974494;28;20027;-88
2021/05/31 07:42:09;;;;;;;16.67;10.07;;;16.70;99.90;;;;;;4965500;28;20047;-90
2021/05/31 07:44:35;;;;;;;13.55;8.95;;;16.70;99.90;;;;;;4965530;28;20038;-91
2021/05/31 07:47:01;;;;;;;11.57;8.65;;;16.80;99.90;;;;;;4961775;28;20035;-93
2021/05/31 07:49:27;;;;;;;11.23;8.40;;;16.90;99.90;;;;;;4975853;28;20039;-89
2021/05/31 07:51:54;;;;;;;10.68;7.82;;;16.90;99.90;;;;;;4976553;28;20378;-92
2021/05/31 07:54:21;;;;;;;10.60;7.32;;;17.00;99.90;;;;;;4976001;28;20046;-91
2021/05/31 07:56:46;;;;;;;9.80;7.80;;;17.00;99.90;;;;;;4959577;28;20035;-92
2021/05/31 07:59:12;;;;;;;10.65;8.30;;;17.00;99.90;;;;;;4959598;28;20397;-92
2021/05/31 08:01:38;;;;;;;11.70;7.82;;;17.10;99.90;;;;;;4959225;28;20070;-91
2021/05/31 08:04:06;;;;;;;12.82;7.47;;;17.20;99.90;;;;;;4976534;28;20043;-90
2021/05/31 08:06:33;;;;;;;11.77;8.30;;;17.30;99.90;;;;;;4976680;28;20079;-89
2021/05/31 08:08:59;;;;;;;12.75;8.77;;;17.40;99.90;;;;;;4959111;28;20039;-91
2021/05/31 08:11:25;;;;;;;12.90;8.23;;;17.60;99.90;;;;;;4976508;28;20035;-92
2021/05/31 08:13:51;;;;;;;11.93;8.55;;;17.70;99.90;;;;;;4961195;28;20480;-89
2021/05/31 08:16:18;;;;;;;13.23;8.30;;;17.80;99.90;;;;;;4988894;28;20132;-89
2021/05/31 08:18:44;;;;;;;14.75;9.88;;;18.00;99.90;;;;;;4994181;28;20050;-90
2021/05/31 08:21:11;;;;;;;11.35;8.93;;;18.10;99.90;;;;;;4989418;28;20023;-91
2021/05/31 08:23:37;;;;;;;11.15;8.00;;;18.30;99.90;;;;;;4986112;28;20074;-90
2021/05/31 08:26:03;;;;;;;12.93;8.73;;;18.30;99.90;;;;;;5016013;28;20104;-86
2021/05/31 08:28:28;;;;;;;14.38;9.35;;;18.30;99.90;;;;;;5032843;28;20069;-91
2021/05/31 08:30:54;;;;;;;10.00;8.07;;;18.40;99.90;;;;;;5011984;28;20038;-92
2021/05/31 08:33:20;;;;;;;10.18;7.75;;;18.50;99.90;;;;;;5000642;28;20033;-90
2021/05/31 08:35:46;;;;;;;10.85;7.45;;;18.50;99.90;;;;;;5037647;28;20050;-93
2021/05/31 08:38:12;;;;;;;9.48;6.18;;;18.60;99.90;;;;;;5008272;28;20049;-92
2021/05/31 08:40:39;;;;;;;12.70;6.57;;;18.60;99.90;;;;;;5016296;28;20058;-90
2021/05/31 08:43:05;;;;;;;8.98;6.10;;;18.70;99.90;;;;;;5001960;28;20114;-89
2021/05/31 08:45:32;;;;;;;7.85;5.32;;;18.70;99.90;;;;;;5009282;28;20029;-92
2021/05/31 08:47:59;;;;;;;7.75;5.57;;;18.80;99.90;;;;;;5020645;28;20033;-91
2021/05/31 08:50:33;;;;;;;8.13;5.93;;;18.90;99.90;;;;;;5001275;28;20074;-88
2021/05/31 08:52:59;;;;;;;9.95;7.07;;;19.00;99.90;;;;;;4983793;28;20061;-87
2021/05/31 08:55:27;;;;;;;8.70;6.35;;;19.20;99.90;;;;;;4979106;28;20046;-89
2021/05/31 08:57:53;;;;;;;9.75;6.00;;;19.40;99.90;;;;;;4978736;28;20085;-89
2021/05/31 09:00:27;;;;;;;8.55;5.80;;;19.50;99.90;;;;;;4976660;28;20038;-89
2021/05/31 09:02:58;;;;;;;7.38;4.82;;;19.60;99.90;;;;;;4972649;28;20041;-90
2021/05/31 09:05:39;;;;;;;7.00;4.60;;;19.70;99.90;;;;;;4969606;28;20041;-87
2021/05/31 09:08:08;;;;;;;7.22;4.40;;;19.80;99.90;;;;;;4981228;28;20030;-87
2021/05/31 09:10:44;;;;;;;5.93;4.65;;;19.90;99.90;;;;;;4977237;28;20041;-89
2021/05/31 09:13:25;;;;;;;8.45;5.30;;;19.90;99.90;;;;;;4964812;28;20026;-88
2021/05/31 09:16:06;;;;;;;7.28;4.93;;;20.00;99.90;;;;;;5003091;28;20427;-89
2021/05/31 09:18:32;;;;;;;7.63;5.38;;;20.10;99.90;;;;;;4983265;28;20034;-90
2021/05/31 09:21:10;;;;;;;7.90;5.25;;;20.30;99.70;;;;;;4981429;28;20045;-91
2021/05/31 09:23:36;;;;;;;7.20;4.95;;;20.30;98.80;;;;;;4982624;28;20053;-89
2021/05/31 09:26:04;;;;;;;6.80;4.50;;;20.40;99.10;;;;;;4985845;28;20038;-90
2021/05/31 09:28:29;;;;;;;6.55;4.75;;;20.50;99.00;;;;;;4999691;28;20130;-87
2021/05/31 09:30:55;;;;;;;8.02;5.10;;;20.90;99.40;;;;;;4998057;28;20452;-88
2021/05/31 09:33:21;;;;;;;6.68;4.60;;;21.80;97.90;;;;;;4980477;28;20404;-89
2021/05/31 09:35:46;;;;;;;6.00;3.63;;;22.90;96.20;;;;;;4997285;28;20161;-90
2021/05/31 09:38:15;;;;;;;5.75;3.45;;;23.80;95.40;;;;;;4995195;28;20057;-88
2021/05/31 09:40:52;;;;;;;4.65;3.70;;;24.70;94.80;;;;;;4981078;28;20034;-87
2021/05/31 09:43:18;;;;;;;4.75;2.95;;;25.50;93.70;;;;;;4996322;28;20057;-88
2021/05/31 09:45:48;;;;;;;4.88;3.22;;;26.10;92.70;;;;;;5008595;28;20399;-88
2021/05/31 09:48:15;;;;;;;3.50;2.58;;;26.70;92.00;;;;;;5001090;28;20030;-88
2021/05/31 09:50:41;;;;;;;5.18;2.80;;;27.20;91.20;;;;;;4981776;28;20030;-89
2021/05/31 09:53:08;;;;;;;4.13;2.95;;;27.60;90.00;;;;;;4998670;28;20036;-88
2021/05/31 09:55:46;;;;;;;5.07;3.45;;;27.80;87.10;;;;;;4997710;28;20045;-89
2021/05/31 09:58:14;;;;;;;8.60;4.05;;;27.90;83.90;;;;;;4980076;28;20140;-88
2021/05/31 10:00:46;;;;;;;5.00;3.45;;;28.00;81.30;;;;;;4962941;28;20035;-89
2021/05/31 10:03:40;;;;;;;4.53;2.97;;;28.20;81.70;;;;;;4979213;28;20046;-88
2021/05/31 10:06:21;;;;;;;5.95;3.15;;;28.50;81.50;;;;;;4997279;28;20027;-88
2021/05/31 10:08:47;;;;;;;4.57;2.63;;;28.90;80.60;;;;;;4999778;28;20030;-87
2021/05/31 10:11:14;;;;;;;7.47;3.30;;;29.30;78.50;;;;;;4996422;28;20473;-85
2021/05/31 10:13:41;;;;;;;4.65;2.60;;;29.50;77.60;;;;;;4997363;28;20472;-84
2021/05/31 10:16:08;;;;;;;4.80;2.40;;;29.80;77.30;;;;;;4979877;28;20117;-85
2021/05/31 10:18:40;;;;;;;3.92;2.60;;;29.90;75.90;;;;;;4992802;28;20061;-85
2021/05/31 10:21:07;;;;;;;6.28;3.35;;;30.00;74.50;;;;;;4980554;28;20084;-84
2021/05/31 10:23:32;;;;;;;4.57;2.92;;;30.10;72.40;;;;;;4973663;28;20566;-85
2021/05/31 10:26:02;;;;;;;3.88;2.63;;;30.00;70.70;;;;;;4957121;28;20046;-87
2021/05/31 10:28:40;;;;;;;3.33;2.63;;;30.10;70.80;;;;;;4955857;28;20519;-88
2021/05/31 10:31:08;;;;;;;4.25;2.80;;;30.50;68.80;;;;;;4975071;28;20511;-84
2021/05/31 10:33:38;;;;;;;4.65;2.88;;;30.50;68.60;;;;;;4961791;28;20778;-86
2021/05/31 10:36:19;;;;;;;5.18;2.60;;;30.50;67.10;;;;;;4990223;28;20027;-87
2021/05/31 10:38:50;;;;;;;3.42;2.10;;;30.50;66.70;;;;;;4957704;28;20069;-86
2021/05/31 10:41:19;;;;;;;4.45;2.75;;;30.70;66.90;;;;;;4960272;28;20583;-86
2021/05/31 10:43:55;;;;;;;4.20;3.08;;;31.00;65.40;;;;;;4971090;28;20042;-85
2021/05/31 10:46:27;;;;;;;4.15;2.90;;;31.10;64.80;;;;;;4970774;28;20022;-84
2021/05/31 10:48:53;;;;;;;3.92;2.28;;;31.30;64.10;;;;;;4966549;28;20413;-86
2021/05/31 10:51:22;;;;;;;4.15;2.60;;;31.20;63.90;;;;;;4994835;28;20042;-84
2021/05/31 10:53:48;;;;;;;5.53;2.80;;;31.20;63.70;;;;;;4967996;28;20039;-86
2021/05/31 10:56:16;;;;;;;4.60;2.60;;;31.40;63.20;;;;;;4979888;28;20046;-86
2021/05/31 10:58:47;;;;;;;4.93;2.60;;;31.60;62.00;;;;;;4978174;28;20500;-87
2021/05/31 11:01:15;;;;;;;4.47;2.95;;;31.70;62.20;;;;;;4970090;28;20429;-85
2021/05/31 11:03:53;;;;;;;3.53;2.38;;;31.80;62.10;;;;;;4970020;28;20077;-86
2021/05/31 11:06:26;;;;;;;4.25;2.72;;;32.00;60.90;;;;;;4976592;28;20388;-86
2021/05/31 11:08:54;;;;;;;4.80;2.60;;;32.00;60.10;;;;;;4974609;28;20038;-87
2021/05/31 11:11:32;;;;;;;4.55;3.00;;;31.90;60.70;;;;;;4977782;28;20041;-86
2021/05/31 11:13:59;;;;;;;4.97;2.90;;;31.90;60.20;;;;;;4988353;28;20110;-86
2021/05/31 11:16:26;;;;;;;4.05;2.40;;;31.80;59.30;;;;;;4991799;28;20034;-87
2021/05/31 11:18:59;;;;;;;4.03;2.40;;;31.70;59.30;;;;;;4974232;28;20027;-86
2021/05/31 11:21:33;;;;;;;3.22;2.03;;;31.70;57.10;;;;;;4972974;28;20075;-86
2021/05/31 11:24:08;;;;;;;3.22;2.08;;;31.70;57.40;;;;;;4967873;28;20066;-86
2021/05/31 11:26:37;;;;;;;3.63;2.40;;;31.90;58.20;;;;;;4976597;28;20055;-87
2021/05/31 11:29:05;;;;;;;3.65;2.40;;;32.00;56.60;;;;;;4980020;28;20118;-87
2021/05/31 11:31:32;;;;;;;5.80;3.80;;;32.00;56.30;;;;;;4957717;28;20548;-86
2021/05/31 11:34:00;;;;;;;4.80;3.10;;;31.80;56.60;;;;;;4974734;28;20046;-85
2021/05/31 11:36:32;;;;;;;8.55;2.97;;;31.70;56.20;;;;;;4975011;28;20086;-86
2021/05/31 11:39:00;;;;;;;4.13;2.70;;;31.90;55.80;;;;;;4966164;28;20113;-86
2021/05/31 11:41:38;;;;;;;3.90;2.60;;;32.00;55.40;;;;;;4957946;28;20066;-85
2021/05/31 11:44:06;;;;;;;4.47;2.55;;;32.10;55.30;;;;;;4956650;28;20400;-87
2021/05/31 11:46:32;;;;;;;5.78;2.80;;;32.20;56.70;;;;;;4956733;28;20035;-87
2021/05/31 11:49:07;;;;;;;3.15;2.30;;;32.10;56.10;;;;;;4957208;28;20512;-88
2021/05/31 11:51:33;;;;;;;4.30;2.30;;;32.30;55.10;;;;;;4957721;28;20097;-89
2021/05/31 11:53:58;;;;;;;3.67;2.42;;;32.40;54.60;;;;;;4957582;28;20043;-86
2021/05/31 11:56:34;;;;;;;5.18;2.40;;;32.50;55.50;;;;;;4957430;28;20495;-88
2021/05/31 11:59:00;;;;;;;3.75;2.40;;;32.60;55.40;;;;;;4957271;28;20058;-89
2021/05/31 12:01:28;;;;;;;3.58;2.50;;;32.40;54.50;;;;;;4956826;28;20455;-88
2021/05/31 12:03:54;;;;;;;5.57;2.67;;;32.40;54.50;;;;;;4957067;28;20138;-88
2021/05/31 12:06:20;;;;;;;2.80;2.33;;;32.60;54.00;;;;;;4956328;28;20468;-89
2021/05/31 12:08:48;;;;;;;3.88;2.45;;;32.90;53.80;;;;;;4948954;28;20037;-86
2021/05/31 12:11:19;;;;;;;3.80;2.60;;;33.00;53.30;;;;;;4969335;28;20094;-88
2021/05/31 12:13:45;;;;;;;4.28;2.60;;;33.10;53.40;;;;;;4966286;28;20045;-86
2021/05/31 12:16:15;;;;;;;3.92;2.28;;;33.10;53.00;;;;;;4954150;28;20023;-87
2021/05/31 12:18:41;;;;;;;3.45;2.15;;;33.10;52.90;;;;;;4952780;28;20026;-88
2021/05/31 12:21:07;;;;;;;3.28;2.22;;;33.10;53.00;;;;;;4952927;28;20047;-90
2021/05/31 12:23:34;;;;;;;3.50;1.95;;;33.00;53.40;;;;;;4953851;28;20967;-87
2021/05/31 12:26:04;;;;;;;3.08;2.20;;;33.00;52.70;;;;;;4997533;28;20050;-88
2021/05/31 12:28:34;;;;;;;3.78;2.60;;;33.10;52.80;;;;;;4973171;28;20129;-87
2021/05/31 12:31:00;;;;;;;4.45;2.63;;;33.20;52.60;;;;;;4970626;28;20066;-87
2021/05/31 12:33:26;;;;;;;3.47;2.83;;;32.80;54.00;;;;;;4984877;28;20080;-87
2021/05/31 12:35:52;;;;;;;4.25;2.65;;;32.40;54.80;;;;;;4981061;28;20109;-87
2021/05/31 12:38:20;;;;;;;3.72;2.58;;;32.40;55.50;;;;;;4988733;28;20034;-85
2021/05/31 12:40:48;;;;;;;3.72;2.42;;;32.50;54.90;;;;;;4966774;28;20027;-88
2021/05/31 12:43:14;;;;;;;4.25;2.80;;;32.80;54.50;;;;;;4971651;28;20133;-86
2021/05/31 12:45:42;;;;;;;3.92;2.90;;;32.70;54.00;;;;;;4982380;28;20159;-88
2021/05/31 12:48:23;;;;;;;4.22;2.55;;;32.50;53.70;;;;;;4963160;28;20488;-89
2021/05/31 12:51:12;;;;;;;4.25;2.75;;;32.40;54.50;;;;;;4971678;28;20026;-89
2021/05/31 12:53:39;;;;;;;4.88;3.20;;;32.50;55.30;;;;;;4967721;28;20488;-87
2021/05/31 12:56:05;;;;;;;4.45;3.00;;;32.70;55.20;;;;;;4990037;28;20042;-88